createdAt,value
2018-03-24T00:00:21.612Z,25.02
2018-03-24T00:00:55.498Z,26.60
2018-03-24T00:01:29.437Z,26.15
2018-03-24T00:02:03.449Z,24.23
2018-03-24T00:02:37.308Z,27.40
2018-03-24T00:03:11.421Z,26.37
2018-03-24T00:03:45.296Z,26.75
2018-03-24T00:04:19.572Z,25.00
2018-03-24T00:04:53.432Z,25.45
2018-03-24T00:05:27.294Z,24.42
2018-03-24T00:06:01.183Z,26.58
2018-03-24T00:06:35.074Z,24.83
2018-03-24T00:07:09.000Z,25.40
2018-03-24T00:07:42.892Z,25.37
2018-03-24T00:08:16.784Z,26.62
2018-03-24T00:08:50.677Z,26.50
2018-03-24T00:09:24.545Z,24.70
2018-03-24T00:09:58.409Z,25.67
2018-03-24T00:10:32.261Z,25.88
2018-03-24T00:11:06.275Z,24.35
2018-03-24T00:11:40.134Z,25.17
2018-03-24T00:12:14.013Z,26.12
2018-03-24T00:12:47.882Z,26.23
2018-03-24T00:13:21.753Z,25.65
2018-03-24T00:13:55.748Z,27.10
2018-03-24T00:14:29.685Z,25.15
2018-03-24T00:15:03.546Z,24.45
2018-03-24T00:15:37.551Z,25.95
2018-03-24T00:16:11.416Z,26.95
2018-03-24T00:16:45.318Z,28.08
2018-03-24T00:17:19.186Z,26.25
2018-03-24T00:17:53.067Z,27.80
2018-03-24T00:18:27.120Z,24.98
2018-03-24T00:19:01.117Z,26.23
2018-03-24T00:19:35.724Z,27.33
2018-03-24T00:20:09.585Z,24.60
2018-03-24T00:20:43.508Z,28.15
2018-03-24T00:21:17.368Z,27.58
2018-03-24T00:21:51.505Z,24.85
2018-03-24T00:22:25.362Z,25.50
2018-03-24T00:22:59.245Z,24.42
2018-03-24T00:23:33.103Z,26.83
2018-03-24T00:24:07.026Z,26.02
2018-03-24T00:24:41.258Z,24.75
2018-03-24T00:25:15.118Z,27.52
2018-03-24T00:25:49.178Z,25.33
2018-03-24T00:26:23.046Z,25.37
2018-03-24T00:26:57.072Z,26.20
2018-03-24T00:27:30.949Z,26.60
2018-03-24T00:28:04.824Z,25.30
2018-03-24T00:28:38.737Z,25.23
2018-03-24T00:29:12.628Z,26.23
2018-03-24T00:29:46.670Z,28.02
2018-03-24T00:30:20.535Z,25.75
2018-03-24T00:30:54.396Z,25.85
2018-03-24T00:31:28.256Z,25.45
2018-03-24T00:32:02.147Z,26.50
2018-03-24T00:32:36.140Z,26.10
2018-03-24T00:33:10.016Z,27.17
2018-03-24T00:33:43.904Z,24.85
2018-03-24T00:34:18.019Z,25.25
2018-03-24T00:34:51.881Z,26.62
2018-03-24T00:35:25.747Z,24.65
2018-03-24T00:35:59.823Z,25.80
2018-03-24T00:36:33.697Z,25.12
2018-03-24T00:37:07.556Z,23.35
2018-03-24T00:37:41.609Z,27.42
2018-03-24T00:38:15.470Z,26.20
2018-03-24T00:38:49.498Z,28.30
2018-03-24T00:39:23.414Z,25.92
2018-03-24T00:39:57.368Z,26.83
2018-03-24T00:40:31.216Z,26.85
2018-03-24T00:41:05.265Z,28.17
2018-03-24T00:41:39.140Z,25.70
2018-03-24T00:42:13.179Z,24.90
2018-03-24T00:42:47.050Z,27.23
2018-03-24T00:43:21.079Z,24.77
2018-03-24T00:43:54.938Z,25.98
2018-03-24T00:44:29.057Z,24.48
2018-03-24T00:45:02.901Z,25.67
2018-03-24T00:45:36.832Z,25.30
2018-03-24T00:46:10.698Z,25.50
2018-03-24T00:46:44.568Z,24.67
2018-03-24T00:47:18.545Z,25.42
2018-03-24T00:47:52.411Z,26.10
2018-03-24T00:48:26.433Z,25.92
2018-03-24T00:49:00.300Z,26.42
2018-03-24T00:49:34.338Z,24.10
2018-03-24T00:50:08.188Z,25.83
2018-03-24T00:50:42.063Z,27.08
2018-03-24T00:51:16.110Z,24.90
2018-03-24T00:51:49.969Z,25.37
2018-03-24T00:52:23.902Z,23.75
2018-03-24T00:52:57.792Z,25.20
2018-03-24T00:53:31.654Z,24.42
2018-03-24T00:54:05.893Z,27.13
2018-03-24T00:54:39.787Z,24.85
2018-03-24T00:55:13.642Z,24.52
2018-03-24T00:55:47.510Z,24.50
2018-03-24T00:56:21.480Z,23.42
2018-03-24T00:56:55.340Z,23.80
2018-03-24T00:57:29.220Z,22.75
2018-03-24T00:58:03.110Z,24.73
2018-03-24T00:58:36.984Z,23.60
2018-03-24T00:59:10.953Z,24.60
2018-03-24T00:59:44.948Z,24.80
2018-03-24T01:00:18.807Z,25.33
2018-03-24T01:00:52.684Z,23.42
2018-03-24T01:01:26.732Z,25.23
2018-03-24T01:02:00.595Z,24.95
2018-03-24T01:02:34.462Z,24.55
2018-03-24T01:03:08.325Z,23.73
2018-03-24T01:03:42.250Z,23.00
2018-03-24T01:04:16.151Z,25.08
2018-03-24T01:04:50.022Z,24.85
2018-03-24T01:05:23.895Z,24.70
2018-03-24T01:05:57.774Z,23.87
2018-03-24T01:06:31.644Z,23.25
2018-03-24T01:07:05.901Z,23.75
2018-03-24T01:07:39.765Z,24.45
2018-03-24T01:08:13.630Z,25.10
2018-03-24T01:08:47.598Z,24.08
2018-03-24T01:09:21.465Z,23.98
2018-03-24T01:09:55.821Z,25.80
2018-03-24T01:10:30.093Z,23.75
2018-03-24T01:11:04.000Z,24.90
2018-03-24T01:11:37.865Z,24.00
2018-03-24T01:12:11.735Z,24.45
2018-03-24T01:12:45.615Z,24.80
2018-03-24T01:13:19.478Z,25.95
2018-03-24T01:13:53.351Z,25.30
2018-03-24T01:14:27.354Z,25.15
2018-03-24T01:15:01.235Z,24.23
2018-03-24T01:15:35.083Z,25.73
2018-03-24T01:16:08.937Z,24.45
2018-03-24T01:16:42.844Z,25.42
2018-03-24T01:17:16.721Z,24.25
2018-03-24T01:17:50.726Z,25.85
2018-03-24T01:18:24.594Z,24.80
2018-03-24T01:18:58.722Z,24.70
2018-03-24T01:19:32.721Z,22.42
2018-03-24T01:20:06.617Z,22.73
2018-03-24T01:20:40.607Z,25.95
2018-03-24T01:21:14.615Z,23.80
2018-03-24T01:21:48.514Z,25.90
2018-03-24T01:22:22.393Z,23.95
2018-03-24T01:22:56.257Z,25.83
2018-03-24T01:23:30.119Z,25.17
2018-03-24T01:24:04.086Z,24.58
2018-03-24T01:24:38.078Z,24.58
2018-03-24T01:25:11.951Z,26.35
2018-03-24T01:25:45.817Z,23.50
2018-03-24T01:26:19.672Z,24.27
2018-03-24T01:26:53.545Z,22.85
2018-03-24T01:27:27.434Z,21.67
2018-03-24T01:28:01.297Z,23.33
2018-03-24T01:28:35.166Z,23.95
2018-03-24T01:29:09.249Z,21.90
2018-03-24T01:29:43.122Z,22.15
2018-03-24T01:30:17.001Z,24.17
2018-03-24T01:30:51.070Z,26.25
2018-03-24T01:31:24.935Z,22.42
2018-03-24T01:31:58.803Z,22.55
2018-03-24T01:32:32.826Z,22.83
2018-03-24T01:33:06.821Z,23.58
2018-03-24T01:33:40.695Z,21.45
2018-03-24T01:34:14.814Z,23.42
2018-03-24T01:34:48.698Z,24.63
2018-03-24T01:35:22.624Z,24.87
2018-03-24T01:35:56.481Z,21.58
2018-03-24T01:36:30.338Z,22.77
2018-03-24T01:37:04.321Z,22.60
2018-03-24T01:37:38.321Z,23.70
2018-03-24T01:38:12.203Z,22.50
2018-03-24T01:38:46.083Z,21.87
2018-03-24T01:39:19.958Z,21.33
2018-03-24T01:39:53.827Z,23.90
2018-03-24T01:40:27.768Z,21.58
2018-03-24T01:41:01.625Z,22.73
2018-03-24T01:41:35.560Z,23.45
2018-03-24T01:42:09.417Z,21.85
2018-03-24T01:42:43.276Z,23.02
2018-03-24T01:43:17.347Z,23.73
2018-03-24T01:43:51.345Z,22.83
2018-03-24T01:44:25.221Z,22.62
2018-03-24T01:44:59.077Z,21.95
2018-03-24T01:45:32.955Z,22.30
2018-03-24T01:46:06.819Z,22.25
2018-03-24T01:46:40.667Z,23.02
2018-03-24T01:47:14.614Z,22.52
2018-03-24T01:47:48.487Z,22.65
2018-03-24T01:48:22.504Z,23.65
2018-03-24T01:48:56.396Z,22.15
2018-03-24T01:49:30.261Z,21.27
2018-03-24T01:50:04.125Z,21.60
2018-03-24T01:50:38.110Z,21.98
2018-03-24T01:51:12.000Z,21.45
2018-03-24T01:51:45.918Z,23.02
2018-03-24T01:52:19.792Z,21.17
2018-03-24T01:52:53.668Z,22.13
2018-03-24T01:53:34.208Z,21.95
2018-03-24T01:54:08.216Z,20.05
2018-03-24T01:54:42.071Z,21.25
2018-03-24T01:55:15.924Z,19.70
2018-03-24T01:55:50.006Z,20.85
2018-03-24T01:56:24.014Z,20.42
2018-03-24T01:56:57.907Z,21.40
2018-03-24T01:57:31.778Z,21.30
2018-03-24T01:58:05.643Z,22.67
2018-03-24T01:58:39.512Z,21.60
2018-03-24T01:59:13.373Z,20.30
2018-03-24T01:59:47.360Z,22.65
2018-03-24T02:00:21.373Z,20.70
2018-03-24T02:00:55.287Z,21.25
2018-03-24T02:01:29.145Z,20.67
2018-03-24T02:02:03.050Z,20.33
2018-03-24T02:02:36.909Z,21.40
2018-03-24T02:03:10.769Z,20.88
2018-03-24T02:03:44.639Z,21.23
2018-03-24T02:04:18.506Z,22.50
2018-03-24T02:04:52.449Z,21.05
2018-03-24T02:05:26.322Z,20.95
2018-03-24T02:06:00.184Z,22.10
2018-03-24T02:06:34.064Z,20.88
2018-03-24T02:07:07.923Z,19.90
2018-03-24T02:07:41.779Z,20.30
2018-03-24T02:08:15.643Z,21.08
2018-03-24T02:08:49.606Z,23.10
2018-03-24T02:09:23.468Z,21.58
2018-03-24T02:09:57.324Z,20.83
2018-03-24T02:10:31.212Z,21.37
2018-03-24T02:11:05.104Z,19.73
2018-03-24T02:11:38.969Z,20.48
2018-03-24T02:12:12.885Z,20.15
2018-03-24T02:12:46.787Z,20.62
2018-03-24T02:13:20.648Z,19.85
2018-03-24T02:13:54.508Z,20.50
2018-03-24T02:14:28.551Z,19.35
2018-03-24T02:15:02.417Z,18.77
2018-03-24T02:15:36.557Z,20.55
2018-03-24T02:16:10.542Z,20.42
2018-03-24T02:16:44.399Z,20.27
2018-03-24T02:17:18.275Z,21.83
2018-03-24T02:17:52.228Z,21.45
2018-03-24T02:18:26.078Z,20.12
2018-03-24T02:19:00.028Z,19.45
2018-03-24T02:19:33.878Z,19.67
2018-03-24T02:20:07.745Z,22.40
2018-03-24T02:20:41.806Z,20.37
2018-03-24T02:21:26.462Z,19.10
2018-03-24T02:22:00.577Z,18.73
2018-03-24T02:22:34.464Z,19.42
2018-03-24T02:23:08.453Z,20.52
2018-03-24T02:23:42.418Z,18.95
2018-03-24T02:24:16.365Z,20.20
2018-03-24T02:24:50.778Z,21.55
2018-03-24T02:25:24.664Z,20.25
2018-03-24T02:25:58.880Z,20.10
2018-03-24T02:26:32.745Z,22.40
2018-03-24T02:27:06.624Z,19.87
2018-03-24T02:27:40.493Z,20.37
2018-03-24T02:28:14.530Z,20.55
2018-03-24T02:28:48.381Z,19.52
2018-03-24T02:29:22.241Z,20.45
2018-03-24T02:29:56.247Z,20.92
2018-03-24T02:30:30.114Z,20.33
2018-03-24T02:31:04.110Z,21.02
2018-03-24T02:31:37.980Z,20.70
2018-03-24T02:32:11.908Z,20.05
2018-03-24T02:32:45.789Z,20.02
2018-03-24T02:33:19.653Z,19.33
2018-03-24T02:33:53.520Z,19.55
2018-03-24T02:34:27.374Z,20.23
2018-03-24T02:35:01.265Z,19.98
2018-03-24T02:35:35.166Z,19.50
2018-03-24T02:36:09.087Z,19.73
2018-03-24T02:36:42.984Z,19.30
2018-03-24T02:37:16.852Z,20.48
2018-03-24T02:37:50.726Z,21.52
2018-03-24T02:38:24.652Z,19.70
2018-03-24T02:38:58.528Z,20.62
2018-03-24T02:39:32.537Z,21.85
2018-03-24T02:40:06.393Z,21.52
2018-03-24T02:40:40.238Z,19.60
2018-03-24T02:41:14.107Z,18.95
2018-03-24T02:41:48.030Z,19.27
2018-03-24T02:42:21.895Z,21.52
2018-03-24T02:42:55.929Z,19.27
2018-03-24T02:43:29.802Z,18.90
2018-03-24T02:44:03.657Z,19.45
2018-03-24T02:44:37.592Z,20.62
2018-03-24T02:45:11.485Z,19.05
2018-03-24T02:45:45.363Z,20.83
2018-03-24T02:46:19.270Z,19.20
2018-03-24T02:46:53.174Z,20.10
2018-03-24T02:47:27.041Z,19.17
2018-03-24T02:48:00.914Z,18.92
2018-03-24T02:48:34.809Z,18.25
2018-03-24T02:49:08.656Z,20.20
2018-03-24T02:49:42.751Z,18.50
2018-03-24T02:50:16.612Z,19.08
2018-03-24T02:50:50.485Z,20.27
2018-03-24T02:51:24.440Z,19.00
2018-03-24T02:51:58.467Z,18.35
2018-03-24T02:52:32.326Z,20.98
2018-03-24T02:53:06.225Z,21.05
2018-03-24T02:53:40.101Z,19.80
2018-03-24T02:54:13.957Z,19.35
2018-03-24T02:54:48.025Z,21.45
2018-03-24T02:55:21.899Z,20.30
2018-03-24T02:55:55.912Z,19.85
2018-03-24T02:56:29.784Z,19.48
2018-03-24T02:57:04.026Z,20.75
2018-03-24T02:57:37.904Z,21.15
2018-03-24T02:58:11.778Z,20.05
2018-03-24T02:58:45.703Z,20.25
2018-03-24T02:59:19.591Z,19.70
2018-03-24T02:59:53.441Z,20.27
2018-03-24T03:00:27.322Z,20.75
2018-03-24T03:01:01.195Z,19.12
2018-03-24T03:01:35.057Z,19.08
2018-03-24T03:02:09.074Z,18.83
2018-03-24T03:02:43.170Z,18.85
2018-03-24T03:03:17.183Z,20.60
2018-03-24T03:03:51.054Z,19.40
2018-03-24T03:04:24.915Z,19.60
2018-03-24T03:04:58.781Z,19.55
2018-03-24T03:05:32.747Z,18.50
2018-03-24T03:06:06.615Z,18.65
2018-03-24T03:06:40.512Z,18.60
2018-03-24T03:07:14.388Z,18.87
2018-03-24T03:08:15.387Z,19.80
2018-03-24T03:08:49.485Z,20.05
2018-03-24T03:09:23.362Z,19.20
2018-03-24T03:09:57.361Z,19.35
2018-03-24T03:10:31.229Z,19.02
2018-03-24T03:11:05.256Z,20.17
2018-03-24T03:11:39.118Z,20.70
2018-03-24T03:12:13.118Z,19.20
2018-03-24T03:12:47.034Z,19.20
2018-03-24T03:13:20.893Z,18.80
2018-03-24T03:13:54.838Z,18.83
2018-03-24T03:14:28.723Z,17.37
2018-03-24T03:15:02.611Z,17.80
2018-03-24T03:15:36.610Z,21.02
2018-03-24T03:16:10.630Z,18.85
2018-03-24T03:16:44.507Z,21.52
2018-03-24T03:17:18.409Z,20.00
2018-03-24T03:17:52.318Z,19.98
2018-03-24T03:18:26.313Z,21.30
2018-03-24T03:19:00.188Z,19.08
2018-03-24T03:19:34.189Z,18.73
2018-03-24T03:20:08.198Z,19.45
2018-03-24T03:20:42.283Z,18.85
2018-03-24T03:21:16.280Z,19.02
2018-03-24T03:21:50.741Z,20.52
2018-03-24T03:22:24.608Z,19.40
2018-03-24T03:22:58.616Z,20.50
2018-03-24T03:23:32.479Z,19.27
2018-03-24T03:24:06.700Z,18.60
2018-03-24T03:24:40.575Z,18.85
2018-03-24T03:25:14.434Z,19.40
2018-03-24T03:25:48.311Z,19.35
2018-03-24T03:26:22.277Z,18.42
2018-03-24T03:26:56.148Z,18.62
2018-03-24T03:27:30.384Z,20.30
2018-03-24T03:28:04.340Z,20.02
2018-03-24T03:28:38.157Z,19.15
2018-03-24T03:29:12.041Z,19.20
2018-03-24T03:29:45.945Z,19.45
2018-03-24T03:30:27.394Z,17.48
2018-03-24T03:31:11.177Z,20.08
2018-03-24T03:31:51.068Z,18.37
2018-03-24T03:32:25.806Z,19.00
2018-03-24T03:32:59.714Z,18.45
2018-03-24T03:33:33.610Z,19.65
2018-03-24T03:34:07.469Z,18.25
2018-03-24T03:34:41.473Z,19.17
2018-03-24T03:35:15.343Z,19.98
2018-03-24T03:35:49.270Z,18.87
2018-03-24T03:36:23.124Z,18.10
2018-03-24T03:36:56.998Z,18.75
2018-03-24T03:37:30.873Z,17.73
2018-03-24T03:38:04.724Z,18.60
2018-03-24T03:38:38.875Z,19.67
2018-03-24T03:39:12.738Z,18.33
2018-03-24T03:39:46.737Z,18.58
2018-03-24T03:40:20.630Z,19.95
2018-03-24T03:40:54.491Z,21.05
2018-03-24T03:41:28.350Z,18.90
2018-03-24T03:42:02.529Z,20.35
2018-03-24T03:42:36.385Z,19.23
2018-03-24T03:43:10.255Z,19.30
2018-03-24T03:43:44.238Z,19.40
2018-03-24T03:44:18.098Z,18.33
2018-03-24T03:44:51.962Z,19.65
2018-03-24T03:45:25.828Z,20.20
2018-03-24T03:45:59.700Z,19.33
2018-03-24T03:46:33.795Z,18.80
2018-03-24T03:47:07.690Z,18.05
2018-03-24T03:47:41.552Z,19.30
2018-03-24T03:48:15.581Z,19.65
2018-03-24T03:48:49.780Z,18.98
2018-03-24T03:49:23.654Z,19.35
2018-03-24T03:49:57.584Z,19.33
2018-03-24T03:50:31.457Z,18.35
2018-03-24T03:51:05.328Z,20.90
2018-03-24T03:51:39.242Z,18.95
2018-03-24T03:52:13.126Z,19.45
2018-03-24T03:52:47.009Z,19.20
2018-03-24T03:53:20.887Z,19.00
2018-03-24T03:53:54.771Z,19.08
2018-03-24T03:54:28.636Z,18.95
2018-03-24T03:55:02.507Z,20.40
2018-03-24T03:55:36.524Z,18.87
2018-03-24T03:56:10.393Z,20.45
2018-03-24T03:56:44.266Z,19.98
2018-03-24T03:57:18.137Z,19.10
2018-03-24T03:57:52.012Z,18.77
2018-03-24T03:58:25.900Z,21.42
2018-03-24T03:58:59.994Z,21.55
2018-03-24T03:59:33.861Z,20.00
2018-03-24T04:00:07.723Z,18.92
2018-03-24T04:00:41.591Z,18.85
2018-03-24T04:01:15.450Z,19.05
2018-03-24T04:01:49.374Z,18.48
2018-03-24T04:02:23.364Z,19.50
2018-03-24T04:02:57.266Z,18.62
2018-03-24T04:03:31.157Z,18.25
2018-03-24T04:04:05.034Z,18.87
2018-03-24T04:04:38.933Z,19.08
2018-03-24T04:05:12.802Z,19.37
2018-03-24T04:05:46.651Z,18.15
2018-03-24T04:06:20.506Z,19.25
2018-03-24T04:06:54.439Z,20.23
2018-03-24T04:07:28.321Z,17.70
2018-03-24T04:08:02.327Z,18.42
2018-03-24T04:08:36.186Z,19.55
2018-03-24T04:09:10.241Z,19.60
2018-03-24T04:09:44.117Z,18.73
2018-03-24T04:10:18.113Z,18.25
2018-03-24T04:10:51.966Z,19.42
2018-03-24T04:11:26.026Z,19.40
2018-03-24T04:11:59.900Z,19.05
2018-03-24T04:12:33.758Z,18.20
2018-03-24T04:13:07.618Z,19.12
2018-03-24T04:13:41.480Z,19.05
2018-03-24T04:14:15.362Z,19.25
2018-03-24T04:14:49.435Z,18.20
2018-03-24T04:15:23.587Z,19.87
2018-03-24T04:15:57.632Z,18.58
2018-03-24T04:16:31.461Z,17.80
2018-03-24T04:17:05.319Z,19.95
2018-03-24T04:17:39.293Z,19.87
2018-03-24T04:18:13.168Z,18.70
2018-03-24T04:18:47.029Z,18.00
2018-03-24T04:19:20.900Z,19.58
2018-03-24T04:19:54.837Z,21.30
2018-03-24T04:20:28.861Z,20.02
2018-03-24T04:21:02.945Z,19.87
2018-03-24T04:21:36.833Z,19.42
2018-03-24T04:22:10.704Z,20.75
2018-03-24T04:22:44.623Z,20.60
2018-03-24T04:23:18.522Z,20.70
2018-03-24T04:23:52.396Z,19.33
2018-03-24T04:24:26.312Z,19.35
2018-03-24T04:25:00.298Z,19.40
2018-03-24T04:25:34.212Z,19.20
2018-03-24T04:26:08.074Z,18.60
2018-03-24T04:26:41.939Z,19.33
2018-03-24T04:27:15.884Z,19.12
2018-03-24T04:27:49.759Z,19.52
2018-03-24T04:28:23.756Z,20.60
2018-03-24T04:28:57.617Z,18.05
2018-03-24T04:29:31.642Z,19.70
2018-03-24T04:30:05.638Z,18.30
2018-03-24T04:30:39.496Z,19.00
2018-03-24T04:31:13.381Z,19.75
2018-03-24T04:31:47.248Z,18.80
2018-03-24T04:32:21.125Z,19.37
2018-03-24T04:32:54.990Z,18.98
2018-03-24T04:33:28.863Z,17.60
2018-03-24T04:34:02.725Z,18.40
2018-03-24T04:34:37.139Z,18.00
2018-03-24T04:35:11.004Z,18.80
2018-03-24T04:35:44.882Z,18.45
2018-03-24T04:36:18.734Z,19.12
2018-03-24T04:36:52.597Z,19.52
2018-03-24T04:37:26.459Z,20.00
2018-03-24T04:38:00.322Z,18.60
2018-03-24T04:38:34.198Z,16.30
2018-03-24T04:39:08.062Z,20.42
2018-03-24T04:39:42.013Z,17.87
2018-03-24T04:40:15.889Z,19.10
2018-03-24T04:40:49.752Z,18.27
2018-03-24T04:41:23.646Z,20.10
2018-03-24T04:41:57.590Z,20.25
2018-03-24T04:42:31.447Z,18.87
2018-03-24T04:43:05.702Z,19.80
2018-03-24T04:43:39.772Z,19.12
2018-03-24T04:44:13.641Z,19.58
2018-03-24T04:44:47.516Z,19.48
2018-03-24T04:45:21.483Z,19.62
2018-03-24T04:45:55.467Z,18.80
2018-03-24T04:46:29.463Z,18.70
2018-03-24T04:47:03.337Z,19.08
2018-03-24T04:47:37.199Z,19.85
2018-03-24T04:48:11.348Z,19.75
2018-03-24T04:48:45.241Z,18.87
2018-03-24T04:49:19.245Z,18.95
2018-03-24T04:49:53.129Z,17.98
2018-03-24T04:50:26.996Z,18.65
2018-03-24T04:51:00.865Z,19.25
2018-03-24T04:51:34.826Z,18.17
2018-03-24T04:52:08.696Z,18.60
2018-03-24T04:52:42.722Z,18.85
2018-03-24T04:53:16.585Z,18.10
2018-03-24T04:53:50.513Z,19.50
2018-03-24T04:54:24.333Z,18.92
2018-03-24T04:54:58.209Z,18.77
2018-03-24T04:55:32.190Z,18.90
2018-03-24T04:56:06.207Z,18.55
2018-03-24T04:56:40.076Z,17.15
2018-03-24T04:57:13.941Z,20.10
2018-03-24T04:57:47.800Z,20.40
2018-03-24T04:58:21.661Z,18.55
2018-03-24T04:58:55.671Z,19.92
2018-03-24T04:59:29.536Z,19.65
2018-03-24T05:00:03.414Z,19.40
2018-03-24T05:00:37.273Z,18.65
2018-03-24T05:01:11.135Z,18.33
2018-03-24T05:01:45.036Z,17.15
2018-03-24T05:02:18.928Z,17.65
2018-03-24T05:02:52.797Z,18.30
2018-03-24T05:03:26.668Z,19.35
2018-03-24T05:04:00.753Z,19.10
2018-03-24T05:04:34.822Z,18.27
2018-03-24T05:05:08.705Z,17.65
2018-03-24T05:05:42.573Z,18.30
2018-03-24T05:06:16.433Z,20.08
2018-03-24T05:06:50.298Z,17.95
2018-03-24T05:07:24.164Z,18.08
2018-03-24T05:07:58.022Z,17.75
2018-03-24T05:08:31.985Z,19.02
2018-03-24T05:09:05.853Z,17.75
2018-03-24T05:09:39.934Z,18.90
2018-03-24T05:10:14.306Z,17.85
2018-03-24T05:10:48.172Z,19.00
2018-03-24T05:11:22.071Z,19.37
2018-03-24T05:11:56.076Z,17.23
2018-03-24T05:12:29.970Z,19.73
2018-03-24T05:13:03.951Z,18.50
2018-03-24T05:13:38.841Z,18.83
2018-03-24T05:14:12.780Z,19.50
2018-03-24T05:14:46.636Z,18.67
2018-03-24T05:15:20.787Z,18.40
2018-03-24T05:15:54.675Z,18.67
2018-03-24T05:16:28.525Z,18.48
2018-03-24T05:17:02.566Z,18.20
2018-03-24T05:17:36.465Z,17.67
2018-03-24T05:18:10.487Z,18.12
2018-03-24T05:18:44.342Z,17.55
2018-03-24T05:19:18.373Z,18.02
2018-03-24T05:19:52.257Z,18.73
2018-03-24T05:20:26.286Z,19.73
2018-03-24T05:21:00.241Z,17.80
2018-03-24T05:21:34.105Z,19.05
2018-03-24T05:22:07.970Z,17.42
2018-03-24T05:22:42.131Z,17.70
2018-03-24T05:23:16.036Z,18.92
2018-03-24T05:23:49.924Z,18.55
2018-03-24T05:24:23.818Z,16.65
2018-03-24T05:24:57.820Z,19.23
2018-03-24T05:25:31.712Z,17.92
2018-03-24T05:26:05.577Z,17.90
2018-03-24T05:26:39.435Z,19.67
2018-03-24T05:27:13.304Z,17.20
2018-03-24T05:27:47.170Z,18.60
2018-03-24T05:28:21.038Z,19.65
2018-03-24T05:28:54.914Z,17.52
2018-03-24T05:29:29.283Z,17.15
2018-03-24T05:30:03.145Z,17.15
2018-03-24T05:30:37.019Z,17.33
2018-03-24T05:31:10.888Z,18.60
2018-03-24T05:31:44.747Z,18.58
2018-03-24T05:32:18.626Z,18.25
2018-03-24T05:32:52.477Z,17.48
2018-03-24T05:33:26.338Z,18.05
2018-03-24T05:34:00.345Z,17.27
2018-03-24T05:34:34.345Z,18.77
2018-03-24T05:35:08.212Z,18.75
2018-03-24T05:35:42.131Z,18.80
2018-03-24T05:36:16.125Z,19.08
2018-03-24T05:36:50.177Z,18.27
2018-03-24T05:37:24.126Z,19.23
2018-03-24T05:37:58.001Z,16.87
2018-03-24T05:38:31.868Z,17.55
2018-03-24T05:39:05.988Z,19.10
2018-03-24T05:39:39.808Z,16.42
2018-03-24T05:40:13.670Z,19.08
2018-03-24T05:40:47.574Z,16.87
2018-03-24T05:41:21.445Z,17.85
2018-03-24T05:41:55.306Z,19.12
2018-03-24T05:42:29.185Z,19.65
2018-03-24T05:43:03.079Z,18.48
2018-03-24T05:43:37.193Z,17.42
2018-03-24T05:44:11.058Z,18.40
2018-03-24T05:44:44.921Z,17.80
2018-03-24T05:45:18.788Z,17.50
2018-03-24T05:45:52.731Z,18.80
2018-03-24T05:46:26.597Z,16.33
2018-03-24T05:47:00.667Z,18.87
2018-03-24T05:47:34.525Z,19.75
2018-03-24T05:48:08.686Z,18.33
2018-03-24T05:48:42.585Z,18.02
2018-03-24T05:49:16.544Z,18.30
2018-03-24T05:49:50.416Z,18.05
2018-03-24T05:50:24.293Z,19.58
2018-03-24T05:50:58.170Z,18.50
2018-03-24T05:51:32.033Z,18.37
2018-03-24T05:52:06.027Z,18.92
2018-03-24T05:52:39.890Z,17.98
2018-03-24T05:53:13.810Z,17.23
2018-03-24T05:53:47.681Z,19.05
2018-03-24T05:54:21.559Z,18.27
2018-03-24T05:54:55.616Z,18.70
2018-03-24T05:55:29.799Z,16.70
2018-03-24T05:56:03.682Z,18.20
2018-03-24T05:56:37.596Z,19.12
2018-03-24T05:57:11.586Z,16.70
2018-03-24T05:57:45.481Z,19.48
2018-03-24T05:58:19.341Z,18.20
2018-03-24T05:58:53.213Z,19.10
2018-03-24T05:59:27.187Z,17.17
2018-03-24T06:00:01.061Z,18.83
2018-03-24T06:00:34.936Z,17.55
2018-03-24T06:01:08.815Z,18.90
2018-03-24T06:01:42.754Z,19.20
2018-03-24T06:02:16.627Z,18.60
2018-03-24T06:02:50.496Z,16.80
2018-03-24T06:03:24.436Z,18.50
2018-03-24T06:03:58.313Z,17.70
2018-03-24T06:04:32.231Z,18.27
2018-03-24T06:05:06.091Z,16.83
2018-03-24T06:05:40.169Z,18.05
2018-03-24T06:06:14.216Z,18.50
2018-03-24T06:06:48.228Z,18.40
2018-03-24T06:07:22.114Z,18.15
2018-03-24T06:07:55.999Z,19.20
2018-03-24T06:08:30.108Z,20.00
2018-03-24T06:09:04.018Z,17.62
2018-03-24T06:09:37.887Z,19.27
2018-03-24T06:10:11.755Z,19.17
2018-03-24T06:10:45.995Z,17.95
2018-03-24T06:11:19.919Z,19.23
2018-03-24T06:11:53.784Z,19.05
2018-03-24T06:12:27.779Z,18.60
2018-03-24T06:13:01.649Z,18.92
2018-03-24T06:13:35.497Z,19.40
2018-03-24T06:14:09.354Z,18.55
2018-03-24T06:14:43.260Z,17.20
2018-03-24T06:15:17.122Z,18.52
2018-03-24T06:15:50.992Z,18.23
2018-03-24T06:16:24.875Z,18.92
2018-03-24T06:16:58.866Z,17.83
2018-03-24T06:17:32.743Z,17.73
2018-03-24T06:18:06.649Z,19.55
2018-03-24T06:18:40.505Z,18.85
2018-03-24T06:19:14.630Z,18.15
2018-03-24T06:19:48.627Z,18.08
2018-03-24T06:20:22.496Z,18.42
2018-03-24T06:20:56.357Z,19.00
2018-03-24T06:21:30.266Z,17.80
2018-03-24T06:22:04.374Z,18.42
2018-03-24T06:22:38.206Z,18.65
2018-03-24T06:23:12.081Z,18.52
2018-03-24T06:23:45.960Z,18.48
2018-03-24T06:24:19.893Z,18.77
2018-03-24T06:24:53.748Z,17.05
2018-03-24T06:25:27.981Z,16.67
2018-03-24T06:26:01.988Z,18.27
2018-03-24T06:26:35.857Z,19.25
2018-03-24T06:27:09.912Z,18.42
2018-03-24T06:27:43.798Z,18.75
2018-03-24T06:28:17.679Z,18.67
2018-03-24T06:28:51.553Z,18.80
2018-03-24T06:29:25.669Z,18.95
2018-03-24T06:29:59.530Z,18.77
2018-03-24T06:30:36.014Z,18.70
2018-03-24T06:31:28.857Z,18.58
2018-03-24T06:32:05.326Z,18.58
2018-03-24T06:32:39.275Z,18.25
2018-03-24T06:33:13.209Z,19.02
2018-03-24T06:33:47.080Z,18.85
2018-03-24T06:34:21.106Z,17.90
2018-03-24T06:34:54.973Z,16.85
2018-03-24T06:35:28.834Z,19.45
2018-03-24T06:36:13.028Z,18.30
2018-03-24T06:36:46.889Z,17.62
2018-03-24T06:37:20.920Z,18.27
2018-03-24T06:37:54.799Z,17.87
2018-03-24T06:38:28.703Z,17.10
2018-03-24T06:39:02.618Z,18.27
2018-03-24T06:39:36.613Z,19.75
2018-03-24T06:40:10.478Z,17.42
2018-03-24T06:40:44.599Z,19.67
2018-03-24T06:41:18.475Z,19.02
2018-03-24T06:41:52.610Z,18.95
2018-03-24T06:42:26.707Z,17.73
2018-03-24T06:43:00.574Z,18.05
2018-03-24T06:43:34.438Z,18.27
2018-03-24T06:44:08.410Z,18.52
2018-03-24T06:44:42.292Z,18.70
2018-03-24T06:45:16.165Z,19.10
2018-03-24T06:45:50.028Z,18.02
2018-03-24T06:46:23.885Z,18.65
2018-03-24T06:46:57.856Z,19.37
2018-03-24T06:47:32.076Z,17.10
2018-03-24T06:48:06.158Z,17.77
2018-03-24T06:48:40.060Z,20.67
2018-03-24T06:49:13.946Z,18.70
2018-03-24T06:49:47.954Z,17.52
2018-03-24T06:50:21.834Z,18.17
2018-03-24T06:50:55.859Z,18.10
2018-03-24T06:51:29.718Z,18.62
2018-03-24T06:52:03.585Z,19.05
2018-03-24T06:52:37.544Z,18.20
2018-03-24T06:53:11.420Z,18.85
2018-03-24T06:53:45.425Z,18.40
2018-03-24T06:54:19.410Z,18.17
2018-03-24T06:54:53.331Z,18.90
2018-03-24T06:55:27.226Z,18.50
2018-03-24T06:56:01.094Z,18.20
2018-03-24T06:56:35.100Z,19.45
2018-03-24T06:57:09.097Z,17.75
2018-03-24T06:57:42.960Z,18.83
2018-03-24T06:58:16.829Z,18.55
2018-03-24T06:58:50.691Z,19.17
2018-03-24T06:59:24.788Z,19.50
2018-03-24T06:59:58.782Z,18.62
2018-03-24T07:00:32.830Z,19.02
2018-03-24T07:01:06.979Z,19.62
2018-03-24T07:01:40.847Z,19.12
2018-03-24T07:02:14.710Z,19.17
2018-03-24T07:02:48.586Z,19.05
2018-03-24T07:03:22.442Z,18.87
2018-03-24T07:03:56.470Z,20.08
2018-03-24T07:04:30.353Z,18.50
2018-03-24T07:05:04.253Z,19.33
2018-03-24T07:05:38.141Z,18.17
2018-03-24T07:06:12.009Z,18.85
2018-03-24T07:06:45.875Z,17.73
2018-03-24T07:07:19.743Z,19.62
2018-03-24T07:07:53.635Z,18.17
2018-03-24T07:08:27.493Z,17.67
2018-03-24T07:09:01.725Z,20.92
2018-03-24T07:09:35.618Z,19.12
2018-03-24T07:10:09.483Z,19.02
2018-03-24T07:10:43.515Z,18.10
2018-03-24T07:11:17.378Z,18.00
2018-03-24T07:11:51.430Z,18.70
2018-03-24T07:12:25.502Z,18.85
2018-03-24T07:12:59.701Z,20.30
2018-03-24T07:13:33.565Z,18.85
2018-03-24T07:14:07.416Z,20.05
2018-03-24T07:14:41.297Z,18.65
2018-03-24T07:15:15.166Z,19.30
2018-03-24T07:15:49.096Z,19.02
2018-03-24T07:16:22.978Z,19.15
2018-03-24T07:16:56.849Z,18.05
2018-03-24T07:17:30.967Z,19.25
2018-03-24T07:18:05.065Z,18.75
2018-03-24T07:18:39.085Z,19.30